createdAt,value
2024-03-27T00:00:16.923Z,11.50
2024-03-27T00:03:05.368Z,10.80
2024-03-27T00:05:32.251Z,11.90
2024-03-27T00:08:00.970Z,12.30
2024-03-27T00:10:32.269Z,11.80
2024-03-27T00:12:59.113Z,11.50
2024-03-27T00:17:51.026Z,11.90
2024-03-27T00:20:17.752Z,11.40
2024-03-27T00:22:44.070Z,11.20
2024-03-27T00:27:35.994Z,11.50
2024-03-27T00:30:02.549Z,11.10
2024-03-27T00:32:28.847Z,10.40
2024-03-27T00:37:20.241Z,11.40
2024-03-27T00:42:11.479Z,10.50
2024-03-27T00:47:02.803Z,11.00
2024-03-27T00:51:54.162Z,10.50
2024-03-27T00:56:45.500Z,10.40
2024-03-27T00:59:11.848Z,10.90
2024-03-27T01:04:03.199Z,10.20
2024-03-27T01:06:29.566Z,10.60
2024-03-27T01:11:20.823Z,10.00
2024-03-27T01:13:47.155Z,9.70
2024-03-27T01:18:38.440Z,9.70
2024-03-27T01:21:05.309Z,10.40
2024-03-27T01:23:31.707Z,10.10
2024-03-27T01:25:58.093Z,9.20
2024-03-27T01:30:49.461Z,10.00
2024-03-27T01:33:15.883Z,9.50
2024-03-27T01:35:48.217Z,10.00
2024-03-27T01:38:14.637Z,10.50
2024-03-27T01:40:41.005Z,9.80
2024-03-27T01:45:33.290Z,9.70
2024-03-27T01:47:59.723Z,9.20
2024-03-27T01:50:29.828Z,10.00
2024-03-27T01:52:57.833Z,9.50
2024-03-27T01:55:24.669Z,9.90
2024-03-27T01:57:51.732Z,9.60
2024-03-27T02:00:20.582Z,9.50
2024-03-27T02:02:47.446Z,9.30
2024-03-27T02:05:14.225Z,9.70
2024-03-27T02:07:42.288Z,8.80
2024-03-27T02:10:10.429Z,10.30
2024-03-27T02:12:37.304Z,10.00
2024-03-27T02:16:29.449Z,9.80
2024-03-27T02:19:11.565Z,10.00
2024-03-27T02:22:12.423Z,9.30
2024-03-27T02:25:18.557Z,8.80
2024-03-27T02:28:19.531Z,9.40
2024-03-27T02:31:20.411Z,9.50
2024-03-27T02:34:20.432Z,9.00
2024-03-27T02:37:21.417Z,9.30
2024-03-27T02:40:24.444Z,8.70
2024-03-27T02:43:24.418Z,9.40
2024-03-27T02:46:25.421Z,8.40
2024-03-27T02:49:25.424Z,8.90
2024-03-27T02:52:26.427Z,9.20
2024-03-27T02:55:27.437Z,8.40
2024-03-27T02:58:27.425Z,9.10
2024-03-27T03:01:28.450Z,8.70
2024-03-27T03:04:29.415Z,8.80
2024-03-27T03:07:29.436Z,8.70
2024-03-27T03:10:30.428Z,8.20
2024-03-27T03:13:30.441Z,8.50
2024-03-27T03:16:31.433Z,8.20
2024-03-27T03:19:31.459Z,8.40
2024-03-27T03:22:32.432Z,8.50
2024-03-27T03:25:33.448Z,7.80
2024-03-27T03:28:33.478Z,8.70
2024-03-27T03:31:33.440Z,7.60
2024-03-27T03:34:34.449Z,8.20
2024-03-27T03:37:35.437Z,8.80
2024-03-27T03:40:36.443Z,8.50
2024-03-27T03:43:37.425Z,7.80
2024-03-27T03:46:37.443Z,7.80
2024-03-27T03:49:37.434Z,8.10
2024-03-27T03:52:37.440Z,8.10
2024-03-27T03:55:38.452Z,8.30
2024-03-27T03:58:38.469Z,7.60
2024-03-27T04:01:39.448Z,8.10
2024-03-27T04:04:40.432Z,8.10
2024-03-27T04:07:40.438Z,8.20
2024-03-27T04:10:41.471Z,7.70
2024-03-27T04:13:41.458Z,9.70
2024-03-27T04:16:42.437Z,7.70
2024-03-27T04:19:42.703Z,8.60
2024-03-27T04:22:45.447Z,7.60
2024-03-27T04:25:58.494Z,7.20
2024-03-27T04:29:05.461Z,7.00
2024-03-27T04:32:06.460Z,7.40
2024-03-27T04:35:06.460Z,7.40
2024-03-27T04:38:06.467Z,8.20
2024-03-27T04:41:06.462Z,7.70
2024-03-27T04:44:06.477Z,7.50
2024-03-27T04:47:06.462Z,7.50
2024-03-27T04:50:07.450Z,7.70
2024-03-27T04:53:07.505Z,7.60
2024-03-27T04:56:12.443Z,7.90
2024-03-27T04:59:12.449Z,7.40
2024-03-27T05:02:13.461Z,7.10
2024-03-27T05:05:14.472Z,7.60
2024-03-27T05:08:15.467Z,8.10
2024-03-27T05:11:15.509Z,7.80
2024-03-27T05:14:15.483Z,7.60
2024-03-27T05:17:16.499Z,7.40
2024-03-27T05:20:17.461Z,7.90
2024-03-27T05:23:18.472Z,6.60
2024-03-27T05:26:19.491Z,7.30
2024-03-27T05:29:19.479Z,7.30
2024-03-27T05:32:20.535Z,7.10
2024-03-27T05:35:22.499Z,6.30
2024-03-27T05:38:22.482Z,7.00
2024-03-27T05:41:22.480Z,6.70
2024-03-27T05:44:23.492Z,6.50
2024-03-27T05:47:23.488Z,6.20
2024-03-27T05:50:26.497Z,5.80
2024-03-27T05:53:26.492Z,5.80
2024-03-27T05:56:27.517Z,5.70
2024-03-27T05:59:28.483Z,6.20
2024-03-27T06:02:29.594Z,5.20
2024-03-27T06:05:30.560Z,6.50
2024-03-27T06:08:30.570Z,6.80
2024-03-27T06:11:31.490Z,6.40
2024-03-27T06:14:31.476Z,7.10
2024-03-27T06:17:31.499Z,6.90
2024-03-27T06:20:32.475Z,6.50
2024-03-27T06:23:32.502Z,6.60
2024-03-27T06:26:32.496Z,6.30
2024-03-27T06:29:32.504Z,6.10
2024-03-27T06:32:32.510Z,6.20
2024-03-27T06:35:33.502Z,6.00
2024-03-27T06:38:34.514Z,5.60
2024-03-27T06:41:35.522Z,5.40
2024-03-27T06:44:37.394Z,5.60
2024-03-27T06:47:40.503Z,5.40
2024-03-27T06:50:41.533Z,5.70
2024-03-27T06:53:41.499Z,5.40
2024-03-27T06:56:41.521Z,5.30
2024-03-27T06:59:42.529Z,4.80
2024-03-27T07:02:43.528Z,4.80
2024-03-27T07:05:43.518Z,4.70
2024-03-27T07:08:43.536Z,4.90
2024-03-27T07:11:43.538Z,4.20
2024-03-27T07:14:43.544Z,4.20
2024-03-27T07:17:44.520Z,4.10
2024-03-27T07:20:44.535Z,4.30
2024-03-27T07:23:44.518Z,4.40
2024-03-27T07:26:44.515Z,4.80
2024-03-27T07:29:44.535Z,4.20
2024-03-27T07:32:44.509Z,4.20
2024-03-27T07:35:44.540Z,4.10
2024-03-27T07:38:44.568Z,4.30
2024-03-27T07:41:45.542Z,4.90
2024-03-27T07:44:45.547Z,4.40
2024-03-27T07:47:45.595Z,4.40
2024-03-27T07:50:45.554Z,4.10
2024-03-27T07:53:45.563Z,4.70
2024-03-27T07:56:47.558Z,4.70
2024-03-27T07:59:48.610Z,4.40
2024-03-27T08:02:48.550Z,4.40
2024-03-27T08:05:50.543Z,4.40
2024-03-27T08:08:51.551Z,4.50
2024-03-27T08:11:51.538Z,4.50
2024-03-27T08:14:52.592Z,4.30
2024-03-27T08:17:52.564Z,4.30
2024-03-27T08:20:52.709Z,4.10
2024-03-27T08:23:52.721Z,4.00
2024-03-27T08:26:52.567Z,4.10
2024-03-27T08:29:52.585Z,4.00
2024-03-27T08:32:53.565Z,4.20
2024-03-27T08:35:54.650Z,3.90
2024-03-27T08:38:55.629Z,3.90
2024-03-27T08:41:55.575Z,3.60
2024-03-27T08:44:56.590Z,3.90
2024-03-27T08:47:59.681Z,4.00
2024-03-27T08:51:00.700Z,3.70
2024-03-27T08:54:02.666Z,4.10
2024-03-27T08:57:02.576Z,4.00
2024-03-27T09:00:05.999Z,3.80
2024-03-27T09:03:05.631Z,3.90
2024-03-27T09:06:05.689Z,4.10
2024-03-27T09:09:05.569Z,3.70
2024-03-27T09:12:05.977Z,4.10
2024-03-27T09:15:06.807Z,4.20
2024-03-27T09:18:07.595Z,4.10
2024-03-27T09:21:13.604Z,3.60
2024-03-27T09:24:14.594Z,4.20
2024-03-27T09:27:15.595Z,3.40
2024-03-27T09:30:16.794Z,4.10
2024-03-27T09:33:17.625Z,3.70
2024-03-27T09:36:18.601Z,3.70
2024-03-27T09:39:19.726Z,4.10
2024-03-27T09:42:21.583Z,3.70
2024-03-27T09:45:24.663Z,3.50
2024-03-27T09:48:26.639Z,4.00
2024-03-27T09:51:28.643Z,3.50
2024-03-27T09:54:30.600Z,4.10
2024-03-27T09:57:30.613Z,3.60
2024-03-27T10:00:31.599Z,3.50
2024-03-27T10:03:31.609Z,3.40
2024-03-27T10:06:32.612Z,3.20
2024-03-27T10:09:32.693Z,4.10
2024-03-27T10:12:32.643Z,3.40
2024-03-27T10:15:33.607Z,3.60
2024-03-27T10:18:34.637Z,3.90
2024-03-27T10:21:36.622Z,3.10
2024-03-27T10:24:37.660Z,3.40
2024-03-27T10:27:38.605Z,3.80
2024-03-27T10:30:39.635Z,3.50
2024-03-27T10:33:40.614Z,3.40
2024-03-27T10:36:42.630Z,3.20
2024-03-27T10:39:45.629Z,2.90
2024-03-27T10:42:48.663Z,3.00
2024-03-27T10:45:54.625Z,3.20
2024-03-27T10:48:56.662Z,3.50
2024-03-27T10:51:57.631Z,3.00
2024-03-27T10:55:00.629Z,3.10
2024-03-27T10:58:01.659Z,3.20
2024-03-27T11:01:02.622Z,2.60
2024-03-27T11:04:05.640Z,3.40
2024-03-27T11:07:06.668Z,3.30
2024-03-27T11:10:08.657Z,3.20
2024-03-27T11:13:12.631Z,3.30
2024-03-27T11:16:15.701Z,3.30
2024-03-27T11:19:21.645Z,3.10
2024-03-27T11:22:26.657Z,3.20
2024-03-27T11:25:28.661Z,3.30
2024-03-27T11:28:34.682Z,3.20
2024-03-27T11:31:37.636Z,2.90
2024-03-27T11:34:39.669Z,3.30
2024-03-27T11:37:40.644Z,3.10
2024-03-27T11:40:41.700Z,3.20
2024-03-27T11:43:42.669Z,3.60
2024-03-27T11:46:43.647Z,3.20
2024-03-27T11:49:44.680Z,3.40
2024-03-27T11:52:45.697Z,3.00
2024-03-27T11:55:45.669Z,3.00
2024-03-27T11:58:46.744Z,3.40
2024-03-27T12:01:47.650Z,2.90
2024-03-27T12:04:50.678Z,3.00
2024-03-27T12:07:52.675Z,2.70
2024-03-27T12:10:57.666Z,2.80
2024-03-27T12:13:58.678Z,3.00
2024-03-27T12:16:59.725Z,3.00
2024-03-27T12:20:08.695Z,3.50
2024-03-27T12:23:09.684Z,3.10
2024-03-27T12:26:12.674Z,2.60
2024-03-27T12:29:13.684Z,2.90
2024-03-27T12:32:13.676Z,2.80
2024-03-27T12:35:15.698Z,3.00
2024-03-27T12:38:16.691Z,3.20
2024-03-27T12:41:16.716Z,2.90
2024-03-27T12:44:17.674Z,2.80
2024-03-27T12:47:18.724Z,2.90
2024-03-27T12:50:19.678Z,3.20
2024-03-27T12:53:20.700Z,2.80
2024-03-27T12:56:21.723Z,2.80
2024-03-27T12:59:22.723Z,2.90
2024-03-27T13:02:26.695Z,2.70
2024-03-27T13:05:26.706Z,3.10
2024-03-27T13:08:27.711Z,3.20
2024-03-27T13:11:29.689Z,3.10
2024-03-27T13:14:30.681Z,2.80
2024-03-27T13:17:31.694Z,3.10
2024-03-27T13:20:32.705Z,2.80
2024-03-27T13:23:32.759Z,2.70
2024-03-27T13:26:33.708Z,2.80
2024-03-27T13:29:33.693Z,2.70
2024-03-27T13:32:37.757Z,3.10
2024-03-27T13:35:38.699Z,2.90
2024-03-27T13:38:39.719Z,3.20
2024-03-27T13:41:40.722Z,2.90
2024-03-27T13:44:40.716Z,2.70
2024-03-27T13:47:41.720Z,2.70
2024-03-27T13:50:43.879Z,3.30
2024-03-27T13:53:44.716Z,3.10
2024-03-27T13:56:45.752Z,2.90
2024-03-27T13:59:45.727Z,3.40
2024-03-27T14:02:46.736Z,2.80
2024-03-27T14:05:47.737Z,3.10
2024-03-27T14:08:47.715Z,3.60
2024-03-27T14:11:47.720Z,3.20
2024-03-27T14:14:47.708Z,3.00
2024-03-27T14:17:48.780Z,3.30
2024-03-27T14:20:49.727Z,3.20
2024-03-27T14:23:49.736Z,3.60
2024-03-27T14:26:49.731Z,3.40
2024-03-27T14:29:49.724Z,3.00
2024-03-27T14:32:50.736Z,3.10
2024-03-27T14:35:51.707Z,3.60
2024-03-27T14:38:52.746Z,3.10
2024-03-27T14:41:53.723Z,2.90
2024-03-27T14:44:54.750Z,3.30
2024-03-27T14:47:55.756Z,3.50
2024-03-27T14:50:56.751Z,3.30
2024-03-27T14:53:56.804Z,3.00
2024-03-27T14:56:57.746Z,3.30
2024-03-27T14:59:58.753Z,2.70
2024-03-27T15:02:58.757Z,3.10
2024-03-27T15:05:59.759Z,2.80
2024-03-27T15:09:00.765Z,2.90
2024-03-27T15:12:01.772Z,2.70
2024-03-27T15:15:02.752Z,2.50
2024-03-27T15:18:02.743Z,2.80
2024-03-27T15:21:03.820Z,2.80
2024-03-27T15:24:03.860Z,2.80
2024-03-27T15:27:03.735Z,2.60
2024-03-27T15:30:05.754Z,2.50
2024-03-27T15:33:05.777Z,2.70
2024-03-27T15:36:06.777Z,2.40
2024-03-27T15:39:08.765Z,2.10
2024-03-27T15:42:08.763Z,2.60
2024-03-27T15:45:08.823Z,2.70
2024-03-27T15:48:09.775Z,2.40
2024-03-27T15:51:10.758Z,2.80
2024-03-27T15:54:10.776Z,2.50
2024-03-27T15:57:11.763Z,2.10
2024-03-27T16:00:12.817Z,2.20
2024-03-27T16:03:13.774Z,2.60
2024-03-27T16:06:13.760Z,2.60
2024-03-27T16:09:13.775Z,2.70
2024-03-27T16:12:13.800Z,2.50
2024-03-27T16:15:14.798Z,2.30
2024-03-27T16:18:15.768Z,2.30
2024-03-27T16:21:15.781Z,2.50
2024-03-27T16:24:15.766Z,2.70
2024-03-27T16:27:15.836Z,2.60
2024-03-27T16:30:16.819Z,2.60
2024-03-27T16:33:17.766Z,2.60
2024-03-27T16:36:18.797Z,2.40
2024-03-27T16:39:19.905Z,2.40
2024-03-27T16:42:20.933Z,2.70
2024-03-27T16:45:22.801Z,2.70
2024-03-27T16:48:24.810Z,3.00
2024-03-27T16:51:24.798Z,2.80
2024-03-27T16:54:25.805Z,2.90
2024-03-27T16:57:25.794Z,3.10
2024-03-27T17:00:28.866Z,2.80
2024-03-27T17:03:28.802Z,2.80
2024-03-27T17:06:29.822Z,3.00
2024-03-27T17:09:29.834Z,3.20
2024-03-27T17:12:36.784Z,3.40
2024-03-27T17:15:36.793Z,3.00
2024-03-27T17:18:37.787Z,3.30
2024-03-27T17:21:38.809Z,3.10
2024-03-27T17:24:39.847Z,3.50
2024-03-27T17:27:40.817Z,3.50
2024-03-27T17:30:41.811Z,3.40
2024-03-27T17:33:42.810Z,3.50
2024-03-27T17:36:43.823Z,3.70
2024-03-27T17:39:44.875Z,3.30
2024-03-27T17:42:45.809Z,3.60
2024-03-27T17:45:45.813Z,3.80
2024-03-27T17:48:46.840Z,4.10
2024-03-27T17:51:48.837Z,3.90
2024-03-27T17:54:51.818Z,3.80
2024-03-27T17:57:52.830Z,3.30
2024-03-27T18:00:52.826Z,4.10
2024-03-27T18:03:53.810Z,4.00
2024-03-27T18:06:54.824Z,3.70
2024-03-27T18:09:54.821Z,4.30
2024-03-27T18:12:57.453Z,3.80
2024-03-27T18:15:57.834Z,4.10
2024-03-27T18:18:59.852Z,3.90
2024-03-27T18:21:59.830Z,4.40
2024-03-27T18:25:00.883Z,3.60
2024-03-27T18:28:00.900Z,4.30
2024-03-27T18:31:01.070Z,4.10
2024-03-27T18:34:01.871Z,4.20
2024-03-27T18:37:01.841Z,4.20
2024-03-27T18:40:01.859Z,4.40
2024-03-27T18:43:01.837Z,4.10
2024-03-27T18:46:03.902Z,4.40
2024-03-27T18:49:03.902Z,4.40
2024-03-27T18:52:04.921Z,5.20
2024-03-27T18:55:05.865Z,4.80
2024-03-27T18:58:05.938Z,5.00
2024-03-27T19:01:06.883Z,4.60
2024-03-27T19:04:07.864Z,5.10
2024-03-27T19:07:07.863Z,4.80
2024-03-27T19:10:07.933Z,4.50
2024-03-27T19:13:07.914Z,5.30
2024-03-27T19:16:07.867Z,5.30
2024-03-27T19:19:08.850Z,5.70
2024-03-27T19:22:08.847Z,5.30
2024-03-27T19:25:08.881Z,5.80
2024-03-27T19:28:09.846Z,6.00
2024-03-27T19:31:09.868Z,5.80
2024-03-27T19:34:10.854Z,6.00
2024-03-27T19:37:11.861Z,6.20
2024-03-27T19:40:13.860Z,6.20
2024-03-27T19:43:14.891Z,6.30
2024-03-27T19:46:14.878Z,6.30
2024-03-27T19:49:14.882Z,6.70
2024-03-27T19:52:26.207Z,6.50
2024-03-27T19:55:29.944Z,6.40
2024-03-27T19:58:29.950Z,6.30
2024-03-27T20:01:29.847Z,6.60
2024-03-27T20:04:29.908Z,6.70
2024-03-27T20:07:32.863Z,6.50
2024-03-27T20:10:34.865Z,6.70
2024-03-27T20:13:34.866Z,6.80
2024-03-27T20:16:35.888Z,6.60
2024-03-27T20:19:35.876Z,7.20
2024-03-27T20:22:36.868Z,7.00
2024-03-27T20:25:36.905Z,6.20
2024-03-27T20:28:36.883Z,6.90
2024-03-27T20:31:37.912Z,6.90
2024-03-27T20:34:38.914Z,6.90
2024-03-27T20:37:39.908Z,7.10
2024-03-27T20:40:40.891Z,6.60
2024-03-27T20:43:41.882Z,6.90
2024-03-27T20:46:41.871Z,6.70
2024-03-27T20:49:42.884Z,7.50
2024-03-27T20:52:42.943Z,6.70
2024-03-27T20:55:42.908Z,6.50
2024-03-27T20:58:43.948Z,6.80
2024-03-27T21:01:43.896Z,7.30
2024-03-27T21:04:44.891Z,6.60
2024-03-27T21:07:44.894Z,6.80
2024-03-27T21:10:51.909Z,7.00
2024-03-27T21:13:51.892Z,6.50
2024-03-27T21:16:51.912Z,6.80
2024-03-27T21:19:52.887Z,7.00
2024-03-27T21:22:53.903Z,6.20
2024-03-27T21:25:53.882Z,7.20
2024-03-27T21:28:54.922Z,6.70
2024-03-27T21:31:54.919Z,6.50
2024-03-27T21:34:55.936Z,6.90
2024-03-27T21:37:57.889Z,6.90
2024-03-27T21:41:02.889Z,6.20
2024-03-27T21:44:02.899Z,7.00
2024-03-27T21:47:02.925Z,6.50
2024-03-27T21:50:03.947Z,7.00
2024-03-27T21:53:03.915Z,7.20
2024-03-27T21:56:04.908Z,6.80
2024-03-27T21:59:04.907Z,7.50
2024-03-27T22:02:05.907Z,7.70
2024-03-27T22:05:06.995Z,7.10
2024-03-27T22:08:07.920Z,7.70
2024-03-27T22:11:08.904Z,7.60
2024-03-27T22:14:08.967Z,7.40
2024-03-27T22:17:08.915Z,7.10
2024-03-27T22:20:08.953Z,7.40
2024-03-27T22:23:08.906Z,7.30
2024-03-27T22:26:08.927Z,7.20
2024-03-27T22:29:08.939Z,6.60
2024-03-27T22:32:08.929Z,7.20
2024-03-27T22:35:09.913Z,7.30
2024-03-27T22:38:10.924Z,7.00
2024-03-27T22:41:11.954Z,7.50
2024-03-27T22:44:11.907Z,7.40
2024-03-27T22:47:11.957Z,7.40
2024-03-27T22:50:12.935Z,7.80
2024-03-27T22:53:13.994Z,6.80
2024-03-27T22:56:18.952Z,7.30
2024-03-27T22:59:19.954Z,8.00
2024-03-27T23:02:20.927Z,8.10
2024-03-27T23:05:22.075Z,8.30
2024-03-27T23:08:22.936Z,7.40
2024-03-27T23:11:23.065Z,7.90
2024-03-27T23:14:23.939Z,7.70
2024-03-27T23:17:24.014Z,7.80
2024-03-27T23:20:25.956Z,8.40
2024-03-27T23:23:26.961Z,8.00
2024-03-27T23:26:28.941Z,7.90
2024-03-27T23:29:28.984Z,7.50
2024-03-27T23:32:28.979Z,7.90
2024-03-27T23:35:29.944Z,7.00
2024-03-27T23:38:30.993Z,7.80
2024-03-27T23:41:30.950Z,7.80
2024-03-27T23:44:31.960Z,6.80
2024-03-27T23:47:32.948Z,7.50
2024-03-27T23:50:32.965Z,7.90
2024-03-27T23:53:26.964Z,7.60
2024-03-27T23:56:27.968Z,7.00
2024-03-27T23:59:27.948Z,8.40
